Time;durP1;ratioP1;P1;durP2;ratioP2;P2;SDS_P1;SDS_P2;PMS_P1;PMS_P2;Temp;Humidity;BMP_temperature;BMP_pressure;BME280_temperature;BME280_humidity;BME280_pressure;Samples;Min_cycle;Max_cycle;Signal;HPM_P1;HPM_P2
2021/11/19 00:00:31;;;;;;;38.47;15.90;;;;;;;1.83;98.35;98735.72;5030975;28;20473;-70
2021/11/19 00:02:58;;;;;;;36.63;16.08;;;;;;;1.82;98.19;98726.34;5039519;28;20064;-68
2021/11/19 00:05:24;;;;;;;28.33;12.93;;;;;;;1.82;98.60;98736.59;5032525;28;20044;-69
2021/11/19 00:07:50;;;;;;;35.13;14.82;;;;;;;1.80;98.53;98730.63;5044271;28;20053;-67
2021/11/19 00:10:17;;;;;;;31.70;14.40;;;;;;;1.83;99.12;98725.47;5028706;28;20038;-71
2021/11/19 00:12:43;;;;;;;34.33;14.68;;;;;;;1.89;98.74;98721.94;5013350;28;20068;-70
2021/11/19 00:15:10;;;;;;;37.30;15.77;;;;;;;1.91;98.83;98722.78;5033858;28;20071;-69
2021/11/19 00:17:36;;;;;;;22.38;10.10;;;;;;;1.88;99.52;98718.56;5032797;28;20054;-71
2021/11/19 00:20:05;;;;;;;32.15;12.82;;;;;;;1.91;99.13;98705.69;5018360;28;20045;-71
2021/11/19 00:22:32;;;;;;;;;;;;;;;1.92;99.01;98714.22;5025267;28;20535;-70
2021/11/19 00:24:57;;;;;;;38.47;15.60;;;;;;;1.84;99.22;98698.97;5018469;28;19921;-73
2021/11/19 00:27:23;;;;;;;27.63;11.57;;;;;;;1.93;99.41;98711.66;5036084;28;20053;-70
2021/11/19 00:29:50;;;;;;;29.23;12.02;;;;;;;1.94;99.16;98699.66;5020663;28;20061;-72
2021/11/19 00:32:19;;;;;;;33.40;14.90;;;;;;;1.98;99.52;98704.75;5019940;28;20042;-72
2021/11/19 00:34:45;;;;;;;32.83;13.85;;;;;;;1.92;99.27;98683.47;5028377;28;20064;-72
2021/11/19 00:37:12;;;;;;;24.40;11.38;;;;;;;1.91;99.26;98671.53;5029462;28;20045;-72
2021/11/19 00:39:38;;;;;;;14.77;7.53;;;;;;;1.98;100.00;98683.38;5030945;28;20041;-72
2021/11/19 00:42:05;;;;;;;23.05;9.02;;;;;;;1.96;99.91;98685.13;5016373;28;20056;-73
2021/11/19 00:44:32;;;;;;;19.02;7.97;;;;;;;1.94;100.00;98682.56;5019288;28;20046;-70
2021/11/19 00:46:58;;;;;;;22.20;9.38;;;;;;;1.93;100.00;98675.78;5024244;28;20045;-70
2021/11/19 00:49:27;;;;;;;18.55;8.73;;;;;;;1.86;100.00;98642.56;5007250;28;20042;-72
2021/11/19 00:51:55;;;;;;;22.60;10.00;;;;;;;1.97;100.00;98658.63;5038171;28;20385;-71
2021/11/19 00:54:23;;;;;;;28.52;12.68;;;;;;;1.94;100.00;98661.22;5024134;28;20037;-72
2021/11/19 00:56:53;;;;;;;23.02;10.07;;;;;;;1.92;100.00;98663.81;5033013;28;20662;-74
2021/11/19 00:59:21;;;;;;;20.90;9.90;;;;;;;1.94;100.00;98658.66;5025785;28;20049;-70
2021/11/19 01:01:53;;;;;;;20.02;9.60;;;;;;;1.98;100.00;98657.75;5020079;28;20065;-71
2021/11/19 01:04:20;;;;;;;29.42;12.07;;;;;;;1.95;100.00;98648.38;5011066;28;20508;-71
2021/11/19 01:06:48;;;;;;;33.55;14.98;;;;;;;2.05;100.00;98652.47;5040731;28;20056;-74
2021/11/19 01:09:22;;;;;;;26.52;11.98;;;;;;;2.09;100.00;98666.13;5023070;28;20037;-70
2021/11/19 01:11:48;;;;;;;28.45;13.00;;;;;;;2.09;100.00;98663.56;5036432;28;20130;-69
2021/11/19 01:14:22;;;;;;;24.85;10.73;;;;;;;2.05;100.00;98662.75;5013013;28;20044;-68
2021/11/19 01:16:58;;;;;;;23.80;11.07;;;;;;;2.03;100.00;98654.25;5055791;28;20520;-73
2021/11/19 01:20:08;;;;;;;27.05;11.45;;;;;;;2.09;100.00;98666.94;5039001;28;20037;-70
2021/11/19 01:22:37;;;;;;;23.75;8.63;;;;;;;2.09;100.00;98663.56;5028991;28;20048;-71
2021/11/19 01:25:06;;;;;;;16.25;8.13;;;;;;;2.11;100.00;98661.78;5031318;28;20061;-71
2021/11/19 01:27:32;;;;;;;32.70;13.45;;;;;;;2.16;100.00;98654.88;5024277;28;20397;-72
2021/11/19 01:29:58;;;;;;;30.65;9.75;;;;;;;2.19;99.85;98651.41;5031725;28;20041;-71
2021/11/19 01:32:28;;;;;;;22.15;9.07;;;;;;;2.19;99.88;98664.25;5035023;28;20041;-70
2021/11/19 01:35:21;;;;;;;29.77;10.60;;;;;;;2.18;99.75;98653.13;5025891;28;20076;-71
2021/11/19 01:38:13;;;;;;;16.65;7.95;;;;;;;2.20;99.98;98642.88;5023118;28;20559;-71
2021/11/19 01:40:53;;;;;;;20.98;9.25;;;;;;;2.25;99.48;98648.75;5010301;28;20041;-71
2021/11/19 01:43:27;;;;;;;23.55;10.85;;;;;;;2.31;98.93;98652.03;5020838;28;20045;-73
2021/11/19 01:45:56;;;;;;;12.85;7.30;;;;;;;2.31;98.02;98653.75;5036480;28;20042;-71
2021/11/19 01:48:28;;;;;;;21.77;9.55;;;;;;;2.25;98.23;98652.13;5012843;28;20076;-73
2021/11/19 01:51:06;;;;;;;23.42;9.95;;;;;;;2.23;98.40;98648.78;5030366;28;20124;-69
2021/11/19 01:53:47;;;;;;;24.33;10.30;;;;;;;2.23;98.38;98653.91;5022046;28;20045;-71
2021/11/19 01:56:24;;;;;;;17.83;8.93;;;;;;;2.26;98.04;98642.72;5046899;28;20057;-71
2021/11/19 01:58:59;;;;;;;22.00;9.82;;;;;;;2.24;98.18;98644.50;5031339;28;20052;-70
2021/11/19 02:01:30;;;;;;;24.55;8.90;;;;;;;2.23;98.14;98640.22;5047355;28;20179;-71
2021/11/19 02:03:59;;;;;;;20.73;9.55;;;;;;;2.24;98.05;98642.78;5035041;28;20052;-75
2021/11/19 02:06:32;;;;;;;26.27;10.60;;;;;;;2.28;97.92;98638.44;5001636;28;20417;-69
2021/11/19 02:09:14;;;;;;;22.73;11.13;;;;;;;2.29;97.41;98624.75;5046737;28;20046;-70
2021/11/19 02:11:59;;;;;;;31.63;11.60;;;;;;;2.32;97.43;98642.63;5023814;28;20114;-73
2021/11/19 02:14:40;;;;;;;20.88;8.80;;;;;;;2.31;97.19;98635.78;5033297;28;20045;-71
2021/11/19 02:17:08;;;;;;;15.68;8.35;;;;;;;2.21;97.22;98617.16;5039788;28;20076;-72
2021/11/19 02:19:52;;;;;;;27.40;11.82;;;;;;;2.35;97.02;98630.63;5027267;28;20869;-72
2021/11/19 02:22:35;;;;;;;20.00;9.55;;;;;;;2.33;96.59;98624.66;5004245;28;20568;-69
2021/11/19 02:25:10;;;;;;;24.95;9.90;;;;;;;2.33;96.48;98629.78;5010260;28;20043;-72
2021/11/19 02:28:02;;;;;;;19.25;8.20;;;;;;;2.34;96.86;98635.75;5009699;28;20068;-71
2021/11/19 02:30:33;;;;;;;22.55;8.77;;;;;;;2.28;96.43;98623.91;5028709;28;20045;-71
2021/11/19 02:33:08;;;;;;;27.23;10.82;;;;;;;2.35;95.88;98629.75;5013207;28;20033;-69
2021/11/19 02:36:05;;;;;;;24.48;9.82;;;;;;;2.42;95.76;98631.31;5017237;28;20547;-69
2021/11/19 02:38:55;;;;;;;21.13;8.80;;;;;;;2.42;95.83;98632.16;5033371;28;20512;-71
2021/11/19 02:41:24;;;;;;;22.30;9.73;;;;;;;2.43;95.46;98627.88;5035505;28;20052;-68
2021/11/19 02:43:59;;;;;;;26.00;9.93;;;;;;;2.41;95.91;98615.09;5007830;28;20046;-70
2021/11/19 02:46:28;;;;;;;15.57;6.25;;;;;;;2.42;95.60;98603.97;5011695;28;20045;-71
2021/11/19 02:48:54;;;;;;;;;;;;;;;2.41;95.75;98621.94;5029028;28;20053;-70
2021/11/19 02:51:22;;;;;;;18.60;8.13;;;;;;;2.39;95.78;98632.25;5058273;28;19917;-73
2021/11/19 02:53:49;;;;;;;20.92;8.88;;;;;;;2.31;95.67;98630.66;5023793;28;20051;-69
2021/11/19 02:56:17;;;;;;;22.85;8.88;;;;;;;2.39;96.18;98629.69;5028940;28;20099;-72
2021/11/19 02:58:46;;;;;;;16.27;7.93;;;;;;;2.40;95.81;98608.28;5025923;28;20041;-72
2021/11/19 03:01:13;;;;;;;20.65;9.85;;;;;;;2.43;95.58;98602.25;5038974;28;20064;-72
2021/11/19 03:03:44;;;;;;;23.13;9.45;;;;;;;2.44;95.55;98609.06;5023758;28;20045;-73
2021/11/19 03:06:09;;;;;;;26.38;11.30;;;;;;;2.50;95.42;98604.66;5025383;28;20454;-70
2021/11/19 03:08:35;;;;;;;14.88;7.47;;;;;;;2.53;94.65;98601.19;5001488;28;20042;-73
2021/11/19 03:11:03;;;;;;;23.08;9.00;;;;;;;2.54;94.71;98605.44;5026233;28;20034;-73
2021/11/19 03:13:32;;;;;;;25.92;10.95;;;;;;;2.52;94.61;98610.59;5039482;28;20042;-71
2021/11/19 03:15:58;;;;;;;17.33;8.07;;;;;;;2.47;94.95;98606.44;5029956;28;20429;-73
2021/11/19 03:18:25;;;;;;;20.02;8.07;;;;;;;2.41;94.65;98606.53;5031748;28;20042;-70
2021/11/19 03:20:55;;;;;;;24.63;9.68;;;;;;;2.60;94.23;98607.06;5047060;28;20060;-73
2021/11/19 03:23:21;;;;;;;;;;;;;;;2.65;93.79;98612.94;5040112;28;20041;-68
2021/11/19 03:25:48;;;;;;;28.65;11.25;;;;;;;2.64;93.39;98612.09;4999517;28;19914;-70
2021/11/19 03:28:22;;;;;;;23.65;9.35;;;;;;;2.68;93.29;98618.84;5025952;28;20045;-71
2021/11/19 03:30:51;;;;;;;21.73;9.38;;;;;;;2.74;92.62;98618.72;5035000;28;20552;-71
2021/11/19 03:33:20;;;;;;;22.85;10.07;;;;;;;2.72;92.66;98610.19;5051847;28;20112;-72
2021/11/19 03:35:47;;;;;;;18.73;8.90;;;;;;;2.78;92.39;98611.78;5036861;28;20038;-70
2021/11/19 03:38:14;;;;;;;20.30;9.43;;;;;;;2.74;92.27;98605.88;5032334;28;20505;-69
2021/11/19 03:40:42;;;;;;;23.90;10.05;;;;;;;2.86;92.10;98610.78;5021132;28;20045;-70
2021/11/19 03:43:12;;;;;;;23.55;10.85;;;;;;;2.90;91.60;98609.84;5022972;28;20045;-70
2021/11/19 03:45:44;;;;;;;26.02;11.38;;;;;;;2.93;91.19;98602.06;5034776;28;20053;-70
2021/11/19 03:48:10;;;;;;;23.42;11.77;;;;;;;3.10;90.96;98601.69;5016051;28;20533;-72
2021/11/19 03:50:48;;;;;;;24.43;10.17;;;;;;;3.18;89.55;98604.13;5035041;28;20041;-73
2021/11/19 03:53:16;;;;;;;22.23;10.18;;;;;;;3.15;89.50;98596.47;5022508;28;20037;-73
2021/11/19 03:55:46;;;;;;;13.18;6.13;;;;;;;3.01;89.28;98594.22;5019407;28;20061;-73
2021/11/19 03:58:14;;;;;;;22.58;9.85;;;;;;;3.01;89.74;98593.34;4999258;28;20045;-69
2021/11/19 04:00:45;;;;;;;19.58;9.30;;;;;;;2.94;90.09;98596.06;5032494;28;20413;-71
2021/11/19 04:03:12;;;;;;;22.45;9.43;;;;;;;2.90;90.30;98603.84;5027141;28;20049;-73
2021/11/19 04:05:39;;;;;;;23.40;10.45;;;;;;;2.92;90.34;98599.53;5015082;28;20518;-71
2021/11/19 04:08:06;;;;;;;23.48;11.02;;;;;;;2.96;90.29;98602.00;5025189;28;20565;-70
2021/11/19 04:10:39;;;;;;;24.00;10.48;;;;;;;3.01;90.33;98601.91;5025122;28;20060;-68
2021/11/19 04:13:06;;;;;;;23.23;10.80;;;;;;;3.03;90.13;98597.59;5026798;28;20041;-70
2021/11/19 04:15:47;;;;;;;26.13;9.90;;;;;;;2.98;90.11;98602.00;5010877;28;20052;-72
2021/11/19 04:18:13;;;;;;;21.10;9.10;;;;;;;2.92;89.73;98590.13;5018383;28;20045;-68
2021/11/19 04:20:40;;;;;;;24.98;11.45;;;;;;;2.83;90.62;98576.63;5028931;28;20144;-71
2021/11/19 04:23:07;;;;;;;23.90;9.25;;;;;;;2.93;90.91;98593.53;5025793;28;20033;-72
2021/11/19 04:25:34;;;;;;;31.42;11.63;;;;;;;2.87;91.48;98591.94;5026026;28;20044;-71
2021/11/19 04:28:00;;;;;;;24.60;10.20;;;;;;;2.83;91.46;98585.16;4996238;28;20495;-75
2021/11/19 04:30:54;;;;;;;20.85;9.10;;;;;;;2.90;91.50;98591.88;5028018;28;20037;-70
2021/11/19 04:33:23;;;;;;;22.67;10.85;;;;;;;2.95;91.61;98602.03;5012698;28;20041;-71
2021/11/19 04:35:52;;;;;;;21.88;9.73;;;;;;;2.85;91.19;98575.72;5029823;28;20045;-71
2021/11/19 04:38:18;;;;;;;24.90;10.50;;;;;;;2.97;91.53;98601.13;5028533;28;20610;-71
2021/11/19 04:40:44;;;;;;;25.50;10.10;;;;;;;2.96;91.55;98603.72;5031606;28;20802;-71
2021/11/19 04:43:12;;;;;;;15.82;7.05;;;;;;;2.91;91.92;98608.13;5008399;28;20033;-69
2021/11/19 04:45:39;;;;;;;23.55;9.90;;;;;;;2.93;92.25;98607.19;5031268;28;20048;-73
2021/11/19 04:48:07;;;;;;;21.25;9.95;;;;;;;2.90;92.55;98597.00;5000297;28;20135;-70
2021/11/19 04:50:36;;;;;;;21.83;9.73;;;;;;;2.89;92.84;98607.28;5026407;28;20047;-69
2021/11/19 04:53:04;;;;;;;23.23;9.07;;;;;;;2.93;92.72;98606.38;5028335;28;20106;-67
2021/11/19 04:55:31;;;;;;;21.55;9.57;;;;;;;2.94;92.73;98605.47;5065931;28;20058;-65
2021/11/19 04:57:57;;;;;;;17.13;7.72;;;;;;;2.97;92.55;98596.00;5036766;28;20044;-71
2021/11/19 05:00:27;;;;;;;24.15;10.65;;;;;;;2.96;92.53;98614.00;5028751;28;20513;-61
2021/11/19 05:03:20;;;;;;;22.77;10.65;;;;;;;2.95;92.67;98609.72;5026422;28;20049;-64
2021/11/19 05:05:47;;;;;;;23.45;9.02;;;;;;;2.98;92.67;98610.50;5024592;28;20044;-67
2021/11/19 05:08:14;;;;;;;23.92;9.57;;;;;;;2.99;92.71;98612.19;5027442;28;20033;-67
2021/11/19 05:10:41;;;;;;;18.77;8.25;;;;;;;2.99;92.73;98617.34;5025143;28;20052;-65
2021/11/19 05:13:09;;;;;;;26.77;10.45;;;;;;;3.03;92.83;98617.28;5038717;28;20042;-65
2021/11/19 05:15:42;;;;;;;21.10;9.68;;;;;;;3.10;92.48;98611.97;5009471;28;20042;-60
2021/11/19 05:18:09;;;;;;;21.92;9.60;;;;;;;3.03;92.39;98605.31;5036102;28;20090;-69
2021/11/19 05:20:35;;;;;;;21.65;8.43;;;;;;;3.05;93.16;98618.09;5013609;28;20127;-69
2021/11/19 05:23:01;;;;;;;25.88;10.95;;;;;;;3.00;93.92;98605.34;5042642;28;20041;-71
2021/11/19 05:25:30;;;;;;;27.65;10.77;;;;;;;3.06;94.18;98609.50;5018726;28;20092;-69
2021/11/19 05:27:57;;;;;;;27.88;10.77;;;;;;;3.04;94.99;98609.53;5035361;28;20042;-68
2021/11/19 05:30:23;;;;;;;24.42;9.63;;;;;;;3.03;95.23;98609.59;5030206;28;20175;-67
2021/11/19 05:33:00;;;;;;;22.17;8.70;;;;;;;3.04;95.68;98616.38;5031403;28;20040;-68
2021/11/19 05:35:27;;;;;;;23.83;9.90;;;;;;;3.06;95.24;98605.22;5010361;28;20178;-70
2021/11/19 05:37:53;;;;;;;27.73;10.55;;;;;;;3.13;95.42;98600.81;5025700;28;20076;-68
2021/11/19 05:40:22;;;;;;;27.98;12.05;;;;;;;3.14;95.23;98608.44;5039334;28;20601;-70
2021/11/19 05:42:52;;;;;;;31.58;10.88;;;;;;;3.13;95.46;98605.94;5032971;28;20124;-64
2021/11/19 05:45:20;;;;;;;21.83;8.27;;;;;;;3.18;95.07;98606.69;5028789;28;20045;-63
2021/11/19 05:48:12;;;;;;;20.70;8.05;;;;;;;3.18;94.71;98614.38;5023944;28;20053;-70
2021/11/19 05:50:41;;;;;;;18.30;7.85;;;;;;;3.16;94.93;98614.41;5031102;28;20041;-66
2021/11/19 05:53:10;;;;;;;23.90;9.60;;;;;;;3.11;95.21;98605.13;5044952;28;20046;-68
2021/11/19 05:55:39;;;;;;;21.27;8.38;;;;;;;3.12;95.19;98610.22;5049314;28;20064;-55
2021/11/19 05:58:06;;;;;;;20.73;9.60;;;;;;;3.15;95.50;98612.72;5041052;28;20219;-57
2021/11/19 06:00:38;;;;;;;23.77;10.25;;;;;;;3.20;95.80;98615.19;5009353;28;20080;-54
2021/11/19 06:03:15;;;;;;;21.73;10.27;;;;;;;3.24;94.63;98601.41;5012001;28;20053;-53
2021/11/19 06:06:08;;;;;;;21.55;8.50;;;;;;;3.23;94.67;98610.84;5011030;28;20034;-52
2021/11/19 06:08:56;;;;;;;17.60;7.95;;;;;;;3.11;94.91;98589.72;5019092;28;20037;-55
2021/11/19 06:11:25;;;;;;;15.73;8.07;;;;;;;3.18;95.46;98604.13;5032764;28;20045;-57
2021/11/19 06:14:13;;;;;;;20.77;7.72;;;;;;;3.18;95.82;98596.41;5048410;28;20050;-54
2021/11/19 06:16:43;;;;;;;16.80;7.15;;;;;;;3.14;96.21;98599.94;5032884;28;20041;-55
2021/11/19 06:19:13;;;;;;;21.73;8.57;;;;;;;3.11;96.45;98613.66;5032563;28;20044;-53
2021/11/19 06:21:42;;;;;;;24.17;10.27;;;;;;;3.11;96.91;98597.41;5010842;28;20786;-56
2021/11/19 06:24:13;;;;;;;28.40;10.80;;;;;;;3.07;97.12;98590.66;5011669;28;20072;-55
2021/11/19 06:26:41;;;;;;;25.67;10.77;;;;;;;3.04;97.53;98586.44;4995230;28;20072;-56
2021/11/19 06:29:07;;;;;;;10.40;4.53;;;;;;;3.15;97.27;98596.47;5028157;28;20038;-54
2021/11/19 06:31:38;;;;;;;20.27;8.75;;;;;;;3.13;96.79;98593.94;5044802;28;20128;-55
2021/11/19 06:34:05;;;;;;;24.15;7.05;;;;;;;3.08;96.75;98590.63;5023472;28;20587;-54
2021/11/19 06:36:31;;;;;;;17.65;6.97;;;;;;;3.03;97.05;98578.78;5048153;28;20067;-53
2021/11/19 06:38:59;;;;;;;23.45;8.80;;;;;;;3.08;97.42;98590.63;5031406;28;20033;-54
2021/11/19 06:41:26;;;;;;;21.48;9.02;;;;;;;3.08;97.10;98595.78;5031221;28;20436;-54
2021/11/19 06:44:08;;;;;;;22.73;9.60;;;;;;;3.16;97.05;98590.47;5018157;28;20181;-56
2021/11/19 06:46:54;;;;;;;21.35;8.45;;;;;;;3.09;96.63;98594.88;5027990;28;20092;-58
2021/11/19 06:49:53;;;;;;;;;;;;;;;3.12;96.72;98594.81;5028292;28;20052;-51
2021/11/19 06:52:42;;;;;;;18.75;8.07;;;;;;;3.15;96.38;98578.50;5020495;28;20480;-52
2021/11/19 06:55:26;;;;;;;19.67;8.85;;;;;;;3.22;95.72;98585.19;5017565;28;20469;-51
2021/11/19 06:58:14;;;;;;;18.75;8.27;;;;;;;3.25;95.01;98582.53;5017417;28;20056;-53
2021/11/19 07:00:43;;;;;;;17.48;7.43;;;;;;;3.22;95.17;98580.91;5046905;28;20045;-54
2021/11/19 07:03:11;;;;;;;14.70;6.07;;;;;;;3.26;94.86;98589.38;5032139;28;20599;-55
2021/11/19 07:05:37;;;;;;;22.20;9.13;;;;;;;3.14;95.08;98561.41;5014439;28;20045;-53
2021/11/19 07:08:05;;;;;;;20.05;7.60;;;;;;;3.28;94.87;98588.47;5045686;28;20052;-58
2021/11/19 07:10:32;;;;;;;12.98;6.10;;;;;;;3.23;94.61;98584.31;5029336;28;20042;-53
2021/11/19 07:12:58;;;;;;;20.90;9.20;;;;;;;3.26;95.05;98581.66;5010996;28;20052;-53
2021/11/19 07:15:28;;;;;;;13.73;5.85;;;;;;;3.21;93.99;98561.22;5027329;28;20045;-55
2021/11/19 07:17:54;;;;;;;19.60;7.82;;;;;;;3.23;93.77;98567.19;5012029;28;20050;-54
2021/11/19 07:20:23;;;;;;;13.98;6.35;;;;;;;3.31;93.67;98585.81;5010692;28;20052;-56
2021/11/19 07:22:49;;;;;;;18.58;8.27;;;;;;;3.29;94.15;98584.19;5011894;28;20046;-56
2021/11/19 07:25:17;;;;;;;20.83;8.10;;;;;;;3.31;94.18;98575.53;5010488;28;20559;-57
2021/11/19 07:27:45;;;;;;;13.48;6.55;;;;;;;3.23;94.00;98577.47;4994049;28;20493;-53
2021/11/19 07:30:19;;;;;;;21.10;8.25;;;;;;;3.30;93.90;98575.56;5026305;28;20045;-55
2021/11/19 07:33:12;;;;;;;16.45;7.25;;;;;;;3.32;93.67;98568.69;5029873;28;20049;-56
2021/11/19 07:35:59;;;;;;;19.25;8.07;;;;;;;3.38;93.21;98564.25;5031238;28;20079;-54
2021/11/19 07:38:42;;;;;;;10.15;4.50;;;;;;;3.41;92.80;98553.06;5028372;28;20111;-52
2021/11/19 07:41:22;;;;;;;17.38;6.55;;;;;;;3.40;92.72;98561.66;5029078;28;20092;-55
2021/11/19 07:44:02;;;;;;;21.25;7.38;;;;;;;3.47;92.66;98552.06;5040372;28;20049;-56
2021/11/19 07:46:46;;;;;;;17.88;6.28;;;;;;;3.46;91.88;98553.78;5045072;28;20049;-56
2021/11/19 07:49:13;;;;;;;16.45;7.25;;;;;;;3.50;91.99;98563.13;5043957;28;20127;-54
2021/11/19 07:51:49;;;;;;;15.95;7.00;;;;;;;3.53;91.78;98562.19;5025430;28;20087;-55
2021/11/19 07:54:15;;;;;;;12.10;5.78;;;;;;;3.56;90.15;98564.72;5019070;28;20049;-56
2021/11/19 07:56:42;;;;;;;10.82;4.93;;;;;;;3.56;89.75;98573.22;5011431;28;20062;-53
2021/11/19 07:59:20;;;;;;;12.90;6.05;;;;;;;3.56;90.16;98573.22;5044539;28;20483;-55
2021/11/19 08:01:47;;;;;;;16.60;7.10;;;;;;;3.51;90.29;98553.69;5016312;28;20131;-56
2021/11/19 08:04:13;;;;;;;14.38;6.75;;;;;;;3.60;90.49;98561.19;5034517;28;20068;-56
2021/11/19 08:06:41;;;;;;;18.65;7.22;;;;;;;3.70;89.84;98560.91;4994848;28;20045;-54
2021/11/19 08:09:25;;;;;;;20.10;7.25;;;;;;;3.70;89.47;98550.63;5029337;28;20041;-57
2021/11/19 08:12:00;;;;;;;15.48;5.95;;;;;;;3.74;89.03;98562.53;5026722;28;20572;-57
2021/11/19 08:14:26;;;;;;;12.23;5.30;;;;;;;3.70;89.20;98553.19;5011743;28;20038;-54
2021/11/19 08:16:56;;;;;;;19.70;7.70;;;;;;;3.77;89.02;98553.88;5035877;28;20045;-55
2021/11/19 08:19:33;;;;;;;12.38;5.70;;;;;;;3.82;88.23;98558.03;5052802;28;20045;-55
2021/11/19 08:22:00;;;;;;;18.63;6.75;;;;;;;3.83;88.35;98556.28;5009087;28;20038;-55
2021/11/19 08:24:27;;;;;;;13.35;6.80;;;;;;;3.80;88.10;98544.38;5022241;28;20049;-53
2021/11/19 08:27:01;;;;;;;16.15;6.45;;;;;;;3.78;88.01;98535.84;5010181;28;20034;-51
2021/11/19 08:29:29;;;;;;;12.77;5.90;;;;;;;3.90;87.48;98552.69;5008884;28;20587;-52
2021/11/19 08:31:57;;;;;;;14.07;7.45;;;;;;;3.89;86.88;98543.28;5011265;28;20361;-57
2021/11/19 08:34:23;;;;;;;10.77;5.47;;;;;;;3.89;87.32;98550.16;5009961;28;20041;-55
2021/11/19 08:36:50;;;;;;;15.40;7.03;;;;;;;3.94;86.55;98538.03;5010166;28;20046;-57
2021/11/19 08:39:21;;;;;;;8.05;4.85;;;;;;;3.94;86.64;98548.31;5039748;28;20045;-56
2021/11/19 08:41:48;;;;;;;13.55;5.90;;;;;;;3.84;87.08;98533.13;5010499;28;20048;-57
2021/11/19 08:44:14;;;;;;;12.63;6.00;;;;;;;3.79;86.96;98529.84;5034305;28;20132;-57
2021/11/19 08:46:45;;;;;;;15.07;6.85;;;;;;;3.92;86.84;98540.66;5028964;28;20524;-54
2021/11/19 08:49:14;;;;;;;15.32;8.00;;;;;;;3.92;86.71;98538.09;5019798;28;20034;-57
2021/11/19 08:51:41;;;;;;;13.55;4.88;;;;;;;3.93;86.13;98541.47;5028512;28;20128;-58
2021/11/19 08:54:09;;;;;;;14.30;6.60;;;;;;;3.94;86.03;98535.44;5025383;28;20045;-54
2021/11/19 08:56:39;;;;;;;14.85;6.72;;;;;;;3.96;85.84;98539.69;5025368;28;20064;-54
2021/11/19 08:59:06;;;;;;;17.45;7.57;;;;;;;3.95;86.07;98542.28;5010319;28;20073;-57
2021/11/19 09:01:32;;;;;;;11.32;5.10;;;;;;;3.90;85.75;98542.41;5009207;28;20125;-56
2021/11/19 09:03:58;;;;;;;11.48;4.97;;;;;;;3.84;85.86;98542.56;5010943;28;20395;-54
2021/11/19 09:06:24;;;;;;;17.08;7.05;;;;;;;3.80;86.40;98528.97;5025468;28;20041;-53
2021/11/19 09:08:51;;;;;;;16.58;7.35;;;;;;;3.87;86.00;98521.94;5010048;28;20046;-58
2021/11/19 09:11:20;;;;;;;13.23;6.03;;;;;;;3.90;86.09;98516.69;5010313;28;20120;-53
2021/11/19 09:13:52;;;;;;;16.35;7.50;;;;;;;3.94;86.19;98522.59;5022370;28;20045;-52
2021/11/19 09:16:20;;;;;;;17.10;6.82;;;;;;;3.86;85.95;98520.25;5029581;28;20041;-51
2021/11/19 09:19:43;;;;;;;15.43;6.50;;;;;;;3.87;86.42;98514.22;5029562;28;20037;-53
2021/11/19 09:22:21;;;;;;;16.02;6.70;;;;;;;3.84;86.15;98520.28;5028620;28;20456;-53
2021/11/19 09:24:47;;;;;;;18.02;7.78;;;;;;;3.87;86.42;98503.94;5030692;28;20045;-54
2021/11/19 09:27:18;;;;;;;17.23;7.25;;;;;;;3.88;86.10;98505.59;5020420;28;20057;-52
2021/11/19 09:29:48;;;;;;;15.05;6.80;;;;;;;3.91;86.05;98494.41;5013635;28;20212;-53
2021/11/19 09:32:16;;;;;;;15.30;6.00;;;;;;;3.85;85.90;98480.00;5012310;28;20042;-54
2021/11/19 09:34:49;;;;;;;11.32;5.47;;;;;;;3.94;85.72;98495.16;5013725;28;20053;-54
2021/11/19 09:37:16;;;;;;;15.73;6.82;;;;;;;3.96;86.16;98493.41;5035189;28;20937;-53
2021/11/19 09:39:44;;;;;;;17.70;6.88;;;;;;;3.95;85.57;98483.16;5032966;28;20059;-53
2021/11/19 09:42:29;;;;;;;14.43;6.22;;;;;;;4.01;85.69;98483.00;5031727;28;20128;-57
2021/11/19 09:45:00;;;;;;;17.73;5.93;;;;;;;4.01;85.04;98470.97;5027935;28;20052;-55
2021/11/19 09:48:08;;;;;;;20.15;7.75;;;;;;;4.04;85.26;98478.59;5033143;28;20148;-55
2021/11/19 09:50:55;;;;;;;14.05;6.20;;;;;;;4.20;84.14;98473.88;5031545;28;20136;-54
2021/11/19 09:53:48;;;;;;;11.95;5.55;;;;;;;4.24;83.59;98468.59;5033204;28;20045;-51
2021/11/19 09:56:21;;;;;;;14.27;6.72;;;;;;;4.22;83.21;98467.81;5013916;28;20045;-55
2021/11/19 09:58:46;;;;;;;13.88;5.60;;;;;;;4.21;83.10;98470.41;5028587;28;20056;-55
2021/11/19 10:01:38;;;;;;;15.18;6.32;;;;;;;4.13;83.54;98462.94;5027784;28;20148;-54
2021/11/19 10:04:20;;;;;;;17.98;7.15;;;;;;;4.08;83.62;98456.22;5012471;28;20045;-54
2021/11/19 10:07:03;;;;;;;8.55;4.05;;;;;;;4.08;83.35;98440.81;5028169;28;20437;-55
2021/11/19 10:09:48;;;;;;;10.15;5.40;;;;;;;4.13;83.89;98447.50;5011983;28;20139;-55
2021/11/19 10:12:21;;;;;;;14.10;5.82;;;;;;;4.09;83.33;98447.59;5028192;28;20049;-51
2021/11/19 10:15:03;;;;;;;9.43;3.90;;;;;;;3.97;84.61;98448.81;5013110;28;20045;-54
2021/11/19 10:17:51;;;;;;;16.15;6.43;;;;;;;3.97;84.64;98446.25;5014035;28;20052;-53
2021/11/19 10:20:52;;;;;;;16.00;6.05;;;;;;;4.05;84.56;98438.31;5011597;28;20042;-55
2021/11/19 10:23:34;;;;;;;11.55;4.53;;;;;;;4.08;84.56;98438.22;5027923;28;20041;-56
2021/11/19 10:26:25;;;;;;;15.50;6.90;;;;;;;4.07;84.83;98431.41;5012768;28;21092;-52
2021/11/19 10:29:00;;;;;;;17.02;5.63;;;;;;;4.07;84.51;98427.09;5029756;28;20042;-53
2021/11/19 10:31:27;;;;;;;13.32;5.90;;;;;;;4.05;85.05;98430.59;5032529;28;20037;-53
2021/11/19 10:34:30;;;;;;;14.25;5.97;;;;;;;4.08;85.09;98417.66;5030377;28;20088;-58
2021/11/19 10:37:16;;;;;;;16.40;7.00;;;;;;;4.16;84.29;98421.69;5029988;28;20067;-55
2021/11/19 10:40:20;;;;;;;13.02;5.28;;;;;;;4.12;84.49;98412.38;5027841;28;20100;-57
2021/11/19 10:43:04;;;;;;;16.48;6.55;;;;;;;4.11;84.74;98412.41;5012372;28;20521;-55
2021/11/19 10:45:54;;;;;;;12.13;5.20;;;;;;;4.04;84.60;98409.16;5012366;28;20459;-57
2021/11/19 10:48:35;;;;;;;13.63;6.13;;;;;;;3.95;84.75;98394.00;5022440;28;20048;-54
2021/11/19 10:51:19;;;;;;;13.75;5.25;;;;;;;4.08;84.86;98391.94;5031023;28;20528;-54
2021/11/19 10:53:53;;;;;;;12.52;5.03;;;;;;;4.09;84.47;98403.88;5030910;28;20059;-53
2021/11/19 10:56:45;;;;;;;12.60;5.20;;;;;;;4.05;84.98;98402.31;5032086;28;20148;-53
2021/11/19 10:59:36;;;;;;;16.77;6.38;;;;;;;4.07;84.69;98409.09;5028844;28;20037;-55
2021/11/19 11:02:08;;;;;;;11.27;4.55;;;;;;;4.09;84.81;98409.88;5014462;28;20045;-55
2021/11/19 11:04:40;;;;;;;13.48;5.65;;;;;;;4.11;85.02;98400.41;5032075;28;20420;-57
2021/11/19 11:07:17;;;;;;;12.40;5.13;;;;;;;4.07;84.59;98396.25;5030837;28;20041;-55
2021/11/19 11:09:49;;;;;;;10.63;4.60;;;;;;;4.05;84.91;98399.72;5012653;28;20429;-55
2021/11/19 11:12:22;;;;;;;9.25;4.22;;;;;;;3.94;86.99;98409.47;5011982;28;20044;-54
2021/11/19 11:15:14;;;;;;;12.25;5.57;;;;;;;3.92;87.26;98403.56;5011995;28;20480;-58
2021/11/19 11:18:11;;;;;;;11.38;4.72;;;;;;;3.92;88.05;98411.25;5026754;28;20432;-53
2021/11/19 11:20:39;;;;;;;12.57;4.75;;;;;;;3.90;88.13;98397.59;5031532;28;20037;-51
2021/11/19 11:23:30;;;;;;;12.05;5.25;;;;;;;3.86;88.87;98396.00;5031684;28;20164;-56
2021/11/19 11:26:07;;;;;;;18.42;5.85;;;;;;;3.80;88.80;98397.88;5031535;28;20053;-51
2021/11/19 11:28:56;;;;;;;12.43;5.78;;;;;;;3.78;89.11;98396.22;5022139;28;20042;-54
2021/11/19 11:31:57;;;;;;;12.25;5.60;;;;;;;3.76;89.80;98393.69;5010254;28;20057;-55
2021/11/19 11:34:35;;;;;;;11.98;4.88;;;;;;;3.72;90.26;98389.50;5026055;28;20049;-56
2021/11/19 11:37:23;;;;;;;14.90;6.07;;;;;;;3.77;90.57;98391.94;5026053;28;20046;-54
2021/11/19 11:40:06;;;;;;;11.20;4.00;;;;;;;3.79;90.23;98387.63;5028560;28;20180;-52
2021/11/19 11:42:54;;;;;;;13.80;6.20;;;;;;;3.82;90.36;98384.97;5010563;28;20525;-52
2021/11/19 11:45:30;;;;;;;18.27;6.45;;;;;;;3.87;89.90;98387.41;5059482;28;20060;-55
2021/11/19 11:48:05;;;;;;;12.40;5.57;;;;;;;3.88;89.93;98381.38;5028851;28;20041;-58
2021/11/19 11:51:08;;;;;;;16.13;6.82;;;;;;;3.88;89.58;98396.78;5011206;28;20046;-55
2021/11/19 11:54:12;;;;;;;19.20;7.28;;;;;;;3.84;89.39;98370.34;5024698;28;20485;-57
2021/11/19 11:56:43;;;;;;;14.40;6.32;;;;;;;3.90;88.93;98377.03;5027624;28;20049;-58
2021/11/19 11:59:18;;;;;;;16.95;6.18;;;;;;;3.89;88.70;98393.34;5028441;28;20041;-52
2021/11/19 12:01:48;;;;;;;15.55;5.55;;;;;;;3.80;89.25;98389.31;5026816;28;20049;-56